Time;durP1;ratioP1;P1;durP2;ratioP2;P2;SDS_P1;SDS_P2;PMS_P1;PMS_P2;Temp;Humidity;BMP_temperature;BMP_pressure;BME280_temperature;BME280_humidity;BME280_pressure;Samples;Min_cycle;Max_cycle;Signal;HPM_P1;HPM_P2
2022/09/08 00:01:52;;;;;;;5.03;3.43;;;21.00;99.90;;;;;;5074552;28;20830;-55
2022/09/08 00:04:20;;;;;;;4.13;3.73;;;21.10;99.90;;;;;;5074446;28;20492;-56
2022/09/08 00:06:47;;;;;;;6.70;3.80;;;20.90;99.90;;;;;;5074560;28;20476;-55
2022/09/08 00:09:15;;;;;;;3.83;3.53;;;20.90;99.90;;;;;;5074496;28;20436;-55
2022/09/08 00:11:43;;;;;;;4.70;3.77;;;20.90;99.90;;;;;;5074414;28;20472;-55
2022/09/08 00:14:11;;;;;;;5.37;4.20;;;21.00;99.90;;;;;;5074427;28;20578;-55
2022/09/08 00:16:40;;;;;;;5.43;3.67;;;20.90;99.90;;;;;;5074198;28;20958;-55
2022/09/08 00:19:08;;;;;;;4.53;4.03;;;20.80;99.90;;;;;;5073938;28;20483;-55
2022/09/08 00:21:35;;;;;;;9.30;4.50;;;20.80;99.90;;;;;;5074059;28;20530;-55
2022/09/08 00:24:03;;;;;;;4.43;3.83;;;20.80;99.90;;;;;;5074218;28;20435;-56
2022/09/08 00:26:32;;;;;;;4.37;3.97;;;20.80;99.90;;;;;;5074023;28;20945;-55
2022/09/08 00:28:59;;;;;;;4.83;4.20;;;20.80;99.90;;;;;;5074298;28;20446;-55
2022/09/08 00:31:26;;;;;;;4.87;3.83;;;20.70;99.90;;;;;;5073933;28;20471;-56
2022/09/08 00:33:53;;;;;;;9.63;4.47;;;20.60;99.90;;;;;;5073993;28;20502;-56
2022/09/08 00:36:21;;;;;;;8.83;4.10;;;20.60;99.90;;;;;;5074174;28;20451;-57
2022/09/08 00:38:51;;;;;;;4.33;3.93;;;20.60;99.90;;;;;;5073829;28;20480;-56
2022/09/08 00:41:18;;;;;;;9.73;4.10;;;20.70;99.90;;;;;;5074022;28;20855;-56
2022/09/08 00:43:49;;;;;;;5.77;3.90;;;20.80;99.90;;;;;;5073892;28;20795;-57
2022/09/08 00:46:22;;;;;;;4.60;3.53;;;20.80;99.90;;;;;;5074061;28;20440;-56
2022/09/08 00:48:55;;;;;;;3.10;2.80;;;20.70;99.90;;;;;;5073589;28;20829;-56
2022/09/08 00:51:24;;;;;;;5.10;3.97;;;21.00;99.90;;;;;;5073535;28;20472;-56
2022/09/08 00:53:52;;;;;;;5.13;3.10;;;21.00;99.90;;;;;;5073823;28;20475;-56
2022/09/08 00:56:20;;;;;;;3.37;3.07;;;21.20;99.90;;;;;;5073649;28;20452;-56
2022/09/08 00:58:50;;;;;;;5.50;3.50;;;21.50;99.90;;;;;;5073666;28;20503;-57
2022/09/08 01:01:17;;;;;;;4.37;3.80;;;21.40;99.90;;;;;;5073555;28;20464;-56
2022/09/08 01:03:45;;;;;;;4.63;3.90;;;21.20;99.90;;;;;;5073723;28;20448;-57
2022/09/08 01:12:43;;;;;;;3.83;3.50;;;21.00;99.90;;;;;;5073669;28;20452;-56
2022/09/08 01:14:57;;;;;;;3.43;3.13;;;21.10;99.90;;;;;;5073447;28;20408;-56
2022/09/08 01:17:26;;;;;;;4.57;3.80;;;21.50;99.90;;;;;;5073322;28;20448;-56
2022/09/08 01:19:54;;;;;;;5.10;3.80;;;21.50;99.90;;;;;;5072936;28;20527;-56
2022/09/08 01:22:43;;;;;;;5.80;3.63;;;21.00;99.90;;;;;;5073303;28;20472;-56
2022/09/08 01:25:25;;;;;;;6.30;3.57;;;20.60;99.90;;;;;;5073428;28;20430;-56
2022/09/08 01:28:01;;;;;;;4.10;3.80;;;20.40;99.90;;;;;;5073012;28;20964;-56
2022/09/08 01:30:28;;;;;;;5.17;4.40;;;20.20;99.90;;;;;;5073378;28;20428;-56
2022/09/08 01:32:55;;;;;;;5.40;4.10;;;20.10;99.90;;;;;;5072957;28;20455;-56
2022/09/08 01:35:31;;;;;;;6.87;3.67;;;20.10;99.90;;;;;;5072926;28;20448;-56
2022/09/08 01:37:58;;;;;;;5.37;4.20;;;20.00;99.90;;;;;;5072774;28;20850;-57
2022/09/08 01:40:25;;;;;;;6.63;5.00;;;20.00;99.90;;;;;;5073336;28;20448;-56
2022/09/08 01:42:52;;;;;;;4.60;3.80;;;20.00;99.90;;;;;;5073441;28;20491;-56
2022/09/08 01:45:20;;;;;;;3.93;3.50;;;20.00;99.90;;;;;;5073203;28;20452;-56
2022/09/08 01:47:47;;;;;;;6.50;4.63;;;20.10;99.90;;;;;;5073351;28;20471;-56
2022/09/08 01:50:14;;;;;;;5.10;3.80;;;19.90;99.90;;;;;;5072687;28;20500;-56
2022/09/08 01:52:41;;;;;;;6.13;4.30;;;20.00;99.90;;;;;;5073118;28;20810;-56
2022/09/08 01:55:09;;;;;;;4.40;4.00;;;20.00;99.90;;;;;;5072860;28;20930;-56
2022/09/08 01:57:36;;;;;;;4.07;3.73;;;20.40;99.90;;;;;;5072761;28;20447;-56
2022/09/08 02:00:05;;;;;;;4.70;3.90;;;20.30;99.90;;;;;;5072784;28;20487;-56
2022/09/08 02:02:35;;;;;;;5.67;3.93;;;20.30;99.90;;;;;;5072741;28;20978;-56
2022/09/08 02:05:02;;;;;;;4.23;3.93;;;20.50;99.90;;;;;;5072760;28;20517;-56
2022/09/08 02:07:29;;;;;;;4.40;3.83;;;20.90;99.90;;;;;;5072685;28;20494;-56
2022/09/08 02:09:56;;;;;;;4.00;3.70;;;20.60;99.90;;;;;;5072936;28;20444;-56
2022/09/08 02:12:23;;;;;;;5.23;4.20;;;20.50;99.90;;;;;;5073096;28;20472;-56
2022/09/08 02:14:51;;;;;;;4.87;4.47;;;20.20;99.90;;;;;;5072565;28;20444;-56
2022/09/08 02:17:18;;;;;;;3.20;2.90;;;20.20;99.90;;;;;;5072732;28;20425;-56
2022/09/08 02:19:47;;;;;;;4.10;3.63;;;20.40;99.90;;;;;;5072562;28;20460;-56
2022/09/08 02:22:14;;;;;;;3.33;3.03;;;20.20;99.90;;;;;;5073752;28;20472;-57
2022/09/08 02:24:42;;;;;;;3.50;3.20;;;19.90;99.90;;;;;;5076485;28;20495;-56
2022/09/08 02:27:09;;;;;;;4.60;4.20;;;19.80;99.90;;;;;;5076584;28;20448;-56
2022/09/08 02:29:36;;;;;;;4.83;3.07;;;19.80;99.90;;;;;;5076116;28;20638;-57
2022/09/08 02:32:03;;;;;;;3.93;2.60;;;19.70;99.90;;;;;;5076290;28;20475;-56
2022/09/08 02:34:30;;;;;;;7.30;2.83;;;19.70;99.90;;;;;;5076218;28;20448;-56
2022/09/08 02:36:59;;;;;;;3.63;3.33;;;19.90;99.90;;;;;;5076281;28;20448;-56
2022/09/08 02:39:26;;;;;;;2.60;2.37;;;19.80;99.90;;;;;;5075889;28;20493;-56
2022/09/08 02:41:53;;;;;;;3.40;2.70;;;20.00;99.90;;;;;;5076240;28;20567;-57
2022/09/08 02:44:20;;;;;;;4.27;2.73;;;19.80;99.90;;;;;;5075819;28;20480;-56
2022/09/08 02:46:47;;;;;;;3.40;2.53;;;19.90;99.90;;;;;;5075733;28;20448;-56
2022/09/08 02:49:14;;;;;;;2.27;2.07;;;20.10;99.90;;;;;;5075881;28;20811;-56
2022/09/08 02:51:42;;;;;;;2.63;2.27;;;19.80;99.90;;;;;;5076046;28;20468;-56
2022/09/08 02:54:11;;;;;;;3.57;2.50;;;19.70;99.90;;;;;;5076131;28;20807;-56
2022/09/08 02:56:38;;;;;;;3.10;2.23;;;19.80;99.90;;;;;;5076240;28;20502;-57
2022/09/08 02:59:05;;;;;;;4.07;2.50;;;19.90;99.90;;;;;;5075846;28;20477;-57
2022/09/08 03:01:32;;;;;;;2.60;2.40;;;19.90;99.90;;;;;;5075776;28;20480;-57
2022/09/08 03:03:59;;;;;;;3.67;2.20;;;19.90;99.90;;;;;;5075592;28;20835;-57
2022/09/08 03:06:26;;;;;;;2.30;2.10;;;19.80;99.90;;;;;;5075541;28;20504;-57
2022/09/08 03:08:53;;;;;;;3.43;2.20;;;19.90;99.90;;;;;;5075701;28;20448;-56
2022/09/08 03:11:22;;;;;;;2.37;2.17;;;20.20;99.90;;;;;;5075815;28;20479;-56
2022/09/08 03:13:49;;;;;;;2.47;2.27;;;20.00;99.90;;;;;;5075302;28;20783;-56
2022/09/08 03:16:16;;;;;;;3.03;2.10;;;19.70;99.90;;;;;;5075477;28;20510;-56
2022/09/08 03:18:43;;;;;;;4.50;2.47;;;19.90;99.90;;;;;;5075692;28;20480;-57
2022/09/08 03:21:12;;;;;;;2.10;1.90;;;19.70;99.90;;;;;;5075073;28;20868;-56
2022/09/08 03:23:39;;;;;;;6.20;2.20;;;19.70;99.90;;;;;;5075483;28;20448;-57
2022/09/08 03:26:11;;;;;;;6.43;2.70;;;19.70;99.90;;;;;;5075064;28;20501;-56
2022/09/08 03:28:40;;;;;;;7.03;2.07;;;19.80;99.90;;;;;;5075682;28;20483;-56
2022/09/08 03:31:08;;;;;;;3.40;2.50;;;19.80;99.90;;;;;;5075237;28;20567;-56
2022/09/08 03:33:36;;;;;;;3.00;1.90;;;19.70;99.90;;;;;;5074174;28;20544;-57
2022/09/08 03:36:05;;;;;;;4.23;2.37;;;19.60;99.90;;;;;;5075093;28;20448;-56
2022/09/08 03:38:33;;;;;;;2.40;1.90;;;19.50;99.90;;;;;;5075243;28;20498;-56
2022/09/08 03:41:00;;;;;;;4.10;2.30;;;19.60;99.90;;;;;;5075053;28;20480;-56
2022/09/08 03:43:27;;;;;;;2.20;1.80;;;19.60;99.90;;;;;;5075397;28;20429;-56
2022/09/08 03:45:56;;;;;;;3.27;2.07;;;19.50;99.90;;;;;;5075066;28;20447;-56
2022/09/08 03:48:23;;;;;;;2.37;2.17;;;19.70;99.90;;;;;;5074482;28;20480;-56
2022/09/08 03:50:51;;;;;;;2.50;2.10;;;19.70;99.90;;;;;;5074897;28;20468;-56
2022/09/08 03:53:18;;;;;;;3.47;2.00;;;19.70;99.90;;;;;;5074979;28;20494;-56
2022/09/08 03:55:45;;;;;;;2.60;1.50;;;19.80;99.90;;;;;;5074952;28;20885;-57
2022/09/08 03:58:12;;;;;;;3.23;1.90;;;19.70;99.90;;;;;;5074976;28;20456;-56
2022/09/08 04:00:42;;;;;;;2.23;1.70;;;19.50;99.90;;;;;;5074548;28;20487;-56
2022/09/08 04:03:11;;;;;;;4.70;1.90;;;19.70;99.90;;;;;;5074946;28;20798;-56
2022/09/08 04:05:39;;;;;;;2.13;1.83;;;19.50;99.90;;;;;;5074572;28;20444;-56
2022/09/08 04:08:07;;;;;;;2.30;1.97;;;19.30;99.90;;;;;;5074299;28;20451;-56
2022/09/08 04:10:34;;;;;;;2.93;1.57;;;19.30;99.90;;;;;;5074302;28;20468;-56
2022/09/08 04:13:01;;;;;;;2.20;2.00;;;19.40;99.90;;;;;;5074450;28;20848;-56
2022/09/08 04:15:28;;;;;;;3.13;2.80;;;19.30;99.90;;;;;;5074296;28;20452;-57
2022/09/08 04:17:55;;;;;;;1.93;1.83;;;19.30;99.90;;;;;;5073922;28;20853;-56
2022/09/08 04:20:24;;;;;;;1.70;1.53;;;19.00;99.90;;;;;;5073853;28;20837;-56
2022/09/08 04:22:51;;;;;;;2.10;1.97;;;18.80;99.90;;;;;;5074422;28;20448;-56
2022/09/08 04:25:19;;;;;;;2.90;2.10;;;18.90;99.90;;;;;;5073908;28;20444;-57
2022/09/08 04:27:46;;;;;;;2.33;1.63;;;19.20;99.90;;;;;;5074346;28;20480;-56
2022/09/08 04:30:14;;;;;;;2.43;1.70;;;19.10;99.90;;;;;;5074266;28;20448;-56
2022/09/08 04:32:41;;;;;;;4.70;1.97;;;19.00;99.90;;;;;;5074046;28;20834;-57
2022/09/08 04:35:09;;;;;;;2.00;1.70;;;19.00;99.90;;;;;;5073679;28;20939;-57
2022/09/08 04:37:38;;;;;;;4.67;1.80;;;19.00;99.90;;;;;;5074023;28;20448;-57
2022/09/08 04:40:07;;;;;;;1.80;1.70;;;19.30;99.90;;;;;;5073640;28;20516;-57
2022/09/08 04:42:35;;;;;;;2.07;1.93;;;19.30;99.90;;;;;;5074011;28;20479;-56
2022/09/08 04:45:03;;;;;;;1.60;1.50;;;19.60;99.90;;;;;;5073206;28;20457;-56
2022/09/08 04:47:30;;;;;;;4.00;1.70;;;19.30;99.90;;;;;;5073523;28;20935;-56
2022/09/08 04:49:57;;;;;;;1.73;1.60;;;19.40;99.90;;;;;;5073368;28;20476;-56
2022/09/08 04:52:25;;;;;;;3.10;2.80;;;19.30;99.90;;;;;;5073345;28;20525;-56
2022/09/08 04:54:55;;;;;;;1.87;1.60;;;19.40;99.90;;;;;;5073823;28;20465;-56
2022/09/08 04:57:22;;;;;;;2.97;1.70;;;19.30;99.90;;;;;;5073639;28;20453;-56
2022/09/08 04:59:49;;;;;;;2.10;1.90;;;19.00;99.90;;;;;;5073173;28;20480;-57
2022/09/08 05:02:16;;;;;;;2.23;1.73;;;19.00;99.90;;;;;;5073616;28;20474;-56
2022/09/08 05:04:43;;;;;;;2.57;2.33;;;18.70;99.90;;;;;;5073206;28;20443;-56
2022/09/08 05:07:10;;;;;;;3.90;2.10;;;18.70;99.90;;;;;;5073510;28;20448;-56
2022/09/08 05:09:38;;;;;;;1.87;1.77;;;18.80;99.90;;;;;;5073456;28;20437;-56
2022/09/08 05:12:07;;;;;;;2.17;1.67;;;19.00;99.90;;;;;;5073142;28;20532;-56
2022/09/08 05:14:34;;;;;;;4.13;2.43;;;19.00;99.90;;;;;;5073236;28;20460;-57
2022/09/08 05:17:01;;;;;;;2.30;2.10;;;19.70;99.90;;;;;;5073096;28;21039;-56
2022/09/08 05:19:28;;;;;;;1.80;1.60;;;19.80;99.90;;;;;;5073082;28;20994;-56
2022/09/08 05:21:55;;;;;;;2.40;1.97;;;19.50;99.90;;;;;;5072918;28;21041;-56
2022/09/08 05:24:22;;;;;;;6.00;2.10;;;19.50;99.90;;;;;;5073320;28;20440;-57
2022/09/08 05:26:49;;;;;;;6.40;2.00;;;19.30;99.90;;;;;;5073422;28;20450;-56
2022/09/08 05:29:18;;;;;;;2.53;1.90;;;19.20;99.90;;;;;;5073231;28;20460;-56
2022/09/08 05:31:45;;;;;;;2.40;2.20;;;19.50;99.90;;;;;;5073197;28;20464;-56
2022/09/08 05:34:12;;;;;;;4.00;2.00;;;19.60;99.90;;;;;;5072926;28;20814;-57
2022/09/08 05:36:39;;;;;;;3.40;2.07;;;19.30;99.90;;;;;;5073169;28;20855;-56
2022/09/08 05:39:07;;;;;;;4.57;2.17;;;19.20;99.90;;;;;;5072744;28;20424;-56
2022/09/08 05:41:35;;;;;;;2.00;1.80;;;19.00;99.90;;;;;;5072986;28;20541;-56
2022/09/08 05:44:08;;;;;;;2.20;1.80;;;18.90;99.90;;;;;;5072633;28;20498;-57
2022/09/08 05:46:36;;;;;;;2.27;1.67;;;19.10;99.90;;;;;;5073003;28;20471;-56
2022/09/08 05:49:03;;;;;;;3.07;1.87;;;19.10;99.90;;;;;;5072593;28;20491;-56
2022/09/08 05:51:32;;;;;;;3.07;2.17;;;19.20;99.90;;;;;;5072540;28;20465;-56
2022/09/08 05:53:59;;;;;;;2.23;1.80;;;19.30;99.90;;;;;;5072450;28;20452;-57
2022/09/08 05:56:27;;;;;;;2.43;1.97;;;19.30;99.90;;;;;;5073234;28;20449;-57
2022/09/08 05:58:57;;;;;;;2.60;2.40;;;19.60;99.90;;;;;;5076748;28;20488;-56
2022/09/08 06:01:25;;;;;;;2.43;1.70;;;19.60;99.90;;;;;;5076755;28;20519;-57
2022/09/08 06:03:54;;;;;;;5.00;2.17;;;19.30;99.90;;;;;;5076662;28;20444;-56
2022/09/08 06:06:22;;;;;;;1.80;1.50;;;19.10;99.90;;;;;;5077190;28;20460;-56
2022/09/08 06:08:49;;;;;;;2.43;2.00;;;19.30;99.90;;;;;;5076294;28;20448;-56
2022/09/08 06:11:16;;;;;;;2.10;1.90;;;19.50;99.90;;;;;;5076181;28;20468;-56
2022/09/08 06:13:44;;;;;;;5.50;2.00;;;19.20;99.90;;;;;;5076375;28;20513;-56
2022/09/08 06:16:15;;;;;;;2.33;1.73;;;19.30;99.90;;;;;;5076187;28;21001;-57
2022/09/08 06:18:44;;;;;;;2.47;1.60;;;19.30;99.90;;;;;;5076185;28;20424;-56
2022/09/08 06:21:15;;;;;;;2.30;1.73;;;19.30;99.90;;;;;;5076419;28;20561;-56
2022/09/08 06:23:42;;;;;;;1.90;1.47;;;19.30;99.90;;;;;;5076636;28;20435;-57
2022/09/08 06:26:41;;;;;;;1.50;1.30;;;19.30;99.90;;;;;;5076174;28;20447;-56
2022/09/08 06:29:14;;;;;;;1.57;1.43;;;19.40;99.90;;;;;;5076332;28;20452;-57
2022/09/08 06:31:45;;;;;;;2.20;1.70;;;19.10;99.90;;;;;;5075865;28;20468;-56
2022/09/08 06:34:18;;;;;;;2.00;1.40;;;19.10;99.90;;;;;;5075798;28;20439;-57
2022/09/08 06:36:51;;;;;;;2.57;1.67;;;19.00;99.90;;;;;;5075946;28;20432;-57
2022/09/08 06:39:23;;;;;;;2.77;1.40;;;18.80;99.90;;;;;;5076299;28;20432;-57
2022/09/08 06:41:54;;;;;;;1.93;1.40;;;18.70;99.90;;;;;;5075874;28;20464;-56
2022/09/08 06:44:26;;;;;;;3.10;1.57;;;18.80;99.90;;;;;;5075738;28;20444;-57
2022/09/08 06:46:55;;;;;;;4.70;1.60;;;18.70;99.90;;;;;;5075517;28;20425;-56
2022/09/08 06:49:26;;;;;;;5.50;2.10;;;18.50;99.90;;;;;;5075540;28;20859;-57
2022/09/08 06:52:00;;;;;;;2.60;1.70;;;18.50;99.90;;;;;;5075435;28;20593;-56
2022/09/08 06:54:38;;;;;;;2.00;1.70;;;18.40;99.90;;;;;;5075722;28;20431;-57
2022/09/08 06:57:14;;;;;;;3.13;1.80;;;18.40;99.90;;;;;;5075807;28;20460;-57
2022/09/08 06:59:51;;;;;;;3.03;1.50;;;19.10;99.90;;;;;;5075915;28;20420;-56
2022/09/08 07:02:39;;;;;;;2.07;1.40;;;19.10;99.90;;;;;;5075569;28;20464;-56
2022/09/08 07:05:17;;;;;;;2.20;1.67;;;18.80;99.90;;;;;;5075853;28;20470;-57
2022/09/08 07:07:51;;;;;;;2.47;1.30;;;18.60;99.90;;;;;;5075209;28;20498;-56
2022/09/08 07:10:25;;;;;;;2.03;1.70;;;18.90;99.90;;;;;;5075534;28;20486;-56
2022/09/08 07:12:58;;;;;;;2.77;1.60;;;18.80;99.90;;;;;;5075689;28;20460;-56
2022/09/08 07:15:40;;;;;;;3.10;1.43;;;18.80;99.90;;;;;;5075278;28;20433;-56
2022/09/08 07:18:14;;;;;;;2.03;1.70;;;18.50;99.90;;;;;;5075375;28;20432;-56
2022/09/08 07:20:41;;;;;;;2.50;1.77;;;18.50;99.90;;;;;;5075375;28;20469;-57
2022/09/08 07:23:15;;;;;;;3.50;2.60;;;18.60;99.90;;;;;;5074963;28;20961;-57
2022/09/08 07:25:47;;;;;;;1.90;1.73;;;18.40;99.90;;;;;;5075418;28;20535;-56
2022/09/08 07:28:21;;;;;;;2.50;1.60;;;18.70;99.90;;;;;;5075339;28;20528;-56
2022/09/08 07:30:54;;;;;;;1.73;1.57;;;19.00;99.90;;;;;;5075029;28;20958;-57
2022/09/08 07:33:25;;;;;;;1.73;1.40;;;18.90;99.90;;;;;;5075249;28;20440;-58
2022/09/08 07:36:12;;;;;;;2.23;1.90;;;19.40;99.90;;;;;;5074824;28;20447;-57
2022/09/08 07:38:46;;;;;;;1.87;1.27;;;19.50;99.90;;;;;;5075039;28;20452;-57
2022/09/08 07:41:18;;;;;;;3.10;1.73;;;19.00;99.90;;;;;;5074699;28;20590;-57
2022/09/08 07:43:45;;;;;;;1.47;1.30;;;18.90;99.90;;;;;;5074941;28;20806;-57
2022/09/08 07:46:38;;;;;;;3.03;1.70;;;19.00;99.90;;;;;;5074675;28;20448;-57
2022/09/08 07:49:14;;;;;;;2.50;1.60;;;19.00;99.90;;;;;;5074514;28;20484;-57
2022/09/08 07:51:53;;;;;;;3.10;1.80;;;19.10;99.90;;;;;;5074913;28;20471;-56
2022/09/08 07:54:51;;;;;;;3.20;1.67;;;19.10;99.90;;;;;;5074622;28;20436;-56
2022/09/08 07:57:25;;;;;;;1.67;1.50;;;19.40;99.90;;;;;;5074580;28;21005;-57
2022/09/08 08:00:00;;;;;;;1.87;1.30;;;19.80;99.90;;;;;;5074531;28;20435;-57
2022/09/08 08:02:47;;;;;;;1.70;1.60;;;19.60;99.90;;;;;;5074500;28;20463;-56
2022/09/08 08:05:24;;;;;;;1.90;1.70;;;20.00;99.90;;;;;;5074604;28;20425;-56
2022/09/08 08:07:58;;;;;;;1.80;1.33;;;20.20;99.90;;;;;;5074508;28;20436;-57
2022/09/08 08:10:30;;;;;;;1.63;1.30;;;20.50;99.90;;;;;;5074506;28;20839;-56
2022/09/08 08:13:07;;;;;;;1.20;1.10;;;20.30;99.90;;;;;;5074563;28;20452;-57
2022/09/08 08:15:44;;;;;;;2.10;1.50;;;20.30;99.90;;;;;;5074196;28;20435;-57
2022/09/08 08:18:19;;;;;;;2.47;1.40;;;20.20;99.90;;;;;;5074456;28;20433;-56
2022/09/08 08:20:51;;;;;;;1.30;1.20;;;20.10;99.90;;;;;;5073287;28;20487;-56
2022/09/08 08:23:45;;;;;;;2.60;1.60;;;19.80;99.90;;;;;;5073841;28;20919;-56
2022/09/08 08:26:29;;;;;;;3.57;1.70;;;19.60;99.90;;;;;;5074405;28;20433;-56
2022/09/08 08:29:13;;;;;;;3.13;2.13;;;19.90;99.90;;;;;;5074368;28;20428;-57
2022/09/08 08:31:46;;;;;;;2.30;1.33;;;20.10;99.90;;;;;;5073889;28;20471;-56
2022/09/08 08:34:26;;;;;;;1.80;1.60;;;20.30;99.90;;;;;;5073687;28;20887;-56
2022/09/08 08:36:57;;;;;;;1.23;1.13;;;20.40;99.90;;;;;;5073588;28;20808;-56
2022/09/08 08:39:26;;;;;;;1.47;1.37;;;20.60;99.90;;;;;;5073789;28;20927;-56
2022/09/08 08:42:15;;;;;;;3.00;1.50;;;20.80;99.90;;;;;;5073861;28;20492;-56
2022/09/08 08:44:57;;;;;;;2.00;1.47;;;20.80;99.90;;;;;;5073535;28;20474;-56
2022/09/08 08:47:42;;;;;;;3.00;1.87;;;20.80;99.90;;;;;;5073381;28;20482;-56
2022/09/08 08:50:27;;;;;;;1.70;1.50;;;20.90;99.90;;;;;;5070036;28;20482;-55
2022/09/08 08:53:11;;;;;;;1.80;1.60;;;21.20;99.90;;;;;;5072634;28;21106;-56
2022/09/08 08:55:50;;;;;;;1.57;1.40;;;21.70;99.90;;;;;;5072566;28;20443;-56
2022/09/08 08:58:54;;;;;;;2.17;1.60;;;21.90;99.90;;;;;;5072574;28;20867;-56
2022/09/08 09:01:38;;;;;;;2.40;2.03;;;21.70;99.90;;;;;;5070248;28;20484;-60
2022/09/08 09:04:19;;;;;;;2.00;1.40;;;21.40;99.90;;;;;;5072968;28;20452;-56
2022/09/08 09:07:25;;;;;;;3.80;1.60;;;21.50;99.90;;;;;;5072858;28;20794;-56
2022/09/08 09:10:06;;;;;;;1.70;1.60;;;21.20;99.90;;;;;;5072840;28;20431;-57
2022/09/08 09:12:49;;;;;;;2.63;1.57;;;21.20;99.90;;;;;;5072744;28;20515;-56
2022/09/08 09:15:53;;;;;;;3.53;1.30;;;21.20;99.90;;;;;;5072990;28;20435;-56
2022/09/08 09:18:51;;;;;;;1.50;1.40;;;21.40;99.90;;;;;;5062219;28;20944;-56
2022/09/08 09:21:26;;;;;;;1.60;1.50;;;21.30;99.90;;;;;;5072314;28;20523;-57
2022/09/08 09:24:01;;;;;;;1.57;1.47;;;21.40;99.90;;;;;;5072406;28;20439;-56
2022/09/08 09:26:33;;;;;;;1.50;1.40;;;21.70;99.90;;;;;;5071100;28;20454;-56
2022/09/08 09:29:13;;;;;;;5.40;2.00;;;21.50;99.90;;;;;;5072740;28;20428;-56
2022/09/08 09:32:05;;;;;;;3.03;1.67;;;21.40;99.90;;;;;;5071298;28;20471;-56
2022/09/08 09:34:59;;;;;;;2.30;1.60;;;21.60;99.90;;;;;;5072498;28;20424;-56
2022/09/08 09:37:56;;;;;;;1.63;1.53;;;21.30;99.90;;;;;;5071981;28;20782;-57
2022/09/08 09:40:55;;;;;;;2.00;1.40;;;21.50;99.90;;;;;;5071157;28;20448;-57
2022/09/08 09:43:33;;;;;;;1.50;1.40;;;21.60;99.90;;;;;;5038447;28;20785;-56
2022/09/08 09:46:21;;;;;;;5.07;1.57;;;22.10;99.90;;;;;;5072239;28;20825;-56
2022/09/08 09:49:03;;;;;;;1.43;1.30;;;22.30;99.90;;;;;;4955614;28;3325549;-56
2022/09/08 09:51:47;;;;;;;1.80;1.50;;;22.30;99.90;;;;;;5072735;28;20714;-56
2022/09/08 09:54:27;;;;;;;1.70;1.30;;;22.50;99.90;;;;;;5072937;28;20468;-56
2022/09/08 09:57:37;;;;;;;1.80;1.27;;;22.70;99.90;;;;;;5072609;28;20903;-56
2022/09/08 10:00:17;;;;;;;2.60;1.63;;;22.90;99.90;;;;;;5072746;28;20452;-56
2022/09/08 10:03:26;;;;;;;2.07;1.47;;;23.70;99.90;;;;;;5072874;28;20605;-56
2022/09/08 10:06:24;;;;;;;1.70;1.37;;;24.30;99.90;;;;;;5052435;28;20448;-56
2022/09/08 10:09:19;;;;;;;3.33;1.50;;;24.50;99.90;;;;;;5072822;28;20463;-56
2022/09/08 10:12:39;;;;;;;2.30;1.20;;;24.50;99.90;;;;;;5072514;28;20566;-57
2022/09/08 10:15:44;;;;;;;1.50;1.40;;;24.50;99.90;;;;;;5072754;28;20436;-56
2022/09/08 10:18:48;;;;;;;1.87;1.70;;;24.80;99.90;;;;;;5067181;28;20897;-57
2022/09/08 10:22:07;;;;;;;1.70;1.60;;;23.80;99.90;;;;;;5072339;28;21040;-56
2022/09/08 10:25:04;;;;;;;3.47;1.60;;;22.90;99.90;;;;;;5072073;28;20445;-57
2022/09/08 10:28:06;;;;;;;1.57;1.43;;;22.70;99.90;;;;;;5072499;28;20428;-57
2022/09/08 10:31:23;;;;;;;2.67;1.70;;;22.50;99.90;;;;;;5072134;28;20455;-56
2022/09/08 10:34:38;;;;;;;1.60;1.40;;;22.60;99.90;;;;;;5059507;28;20444;-56
2022/09/08 10:37:14;;;;;;;2.37;1.70;;;22.80;99.90;;;;;;5010324;28;20446;-56
2022/09/08 10:39:56;;;;;;;2.90;1.40;;;22.90;99.90;;;;;;5010914;28;20427;-56
2022/09/08 10:42:45;;;;;;;1.87;1.40;;;22.80;99.90;;;;;;5047080;28;21002;-56
2022/09/08 10:45:47;;;;;;;2.47;1.87;;;22.60;99.90;;;;;;5076334;28;20440;-57
2022/09/08 10:48:47;;;;;;;2.67;2.10;;;22.50;99.90;;;;;;5072595;28;20456;-56
2022/09/08 10:51:49;;;;;;;2.13;1.90;;;22.20;99.90;;;;;;5075846;28;20499;-57
2022/09/08 10:54:47;;;;;;;2.37;1.87;;;22.10;99.90;;;;;;5075842;28;20435;-56
2022/09/08 10:57:40;;;;;;;1.60;1.50;;;22.10;99.90;;;;;;5075642;28;20464;-56
2022/09/08 11:00:11;;;;;;;3.10;1.63;;;22.20;99.90;;;;;;5075443;28;20515;-56
2022/09/08 11:02:52;;;;;;;2.33;1.47;;;22.30;99.90;;;;;;5075447;28;20520;-56
2022/09/08 11:05:41;;;;;;;1.60;1.50;;;22.10;99.90;;;;;;5075507;28;20919;-57
2022/09/08 11:09:01;;;;;;;1.50;1.40;;;21.80;99.90;;;;;;5075683;28;20428;-56
2022/09/08 11:12:00;;;;;;;2.57;1.47;;;21.80;99.90;;;;;;5075443;28;20824;-56
2022/09/08 11:14:58;;;;;;;3.50;2.10;;;22.00;99.90;;;;;;5060197;28;20780;-57
2022/09/08 11:17:26;;;;;;;1.80;1.40;;;22.10;99.90;;;;;;5075505;28;20755;-56
2022/09/08 11:20:02;;;;;;;3.40;1.70;;;22.60;99.90;;;;;;5075281;28;20834;-56
2022/09/08 11:22:43;;;;;;;2.43;1.43;;;22.70;99.90;;;;;;5075250;28;20558;-57
2022/09/08 11:25:42;;;;;;;1.57;1.47;;;22.40;99.90;;;;;;5074898;28;20433;-56
2022/09/08 11:28:19;;;;;;;1.87;1.40;;;22.70;99.90;;;;;;5074898;28;20516;-56
2022/09/08 11:31:00;;;;;;;2.20;1.40;;;24.00;99.90;;;;;;5075208;28;20821;-56
2022/09/08 11:33:45;;;;;;;2.13;1.30;;;25.10;99.90;;;;;;5075251;28;20462;-57
2022/09/08 11:36:31;;;;;;;3.73;1.60;;;24.70;99.90;;;;;;5074816;28;20428;-56
2022/09/08 11:39:14;;;;;;;3.80;1.50;;;24.90;99.90;;;;;;5075137;28;20433;-56
2022/09/08 11:41:56;;;;;;;1.90;1.70;;;24.50;99.90;;;;;;5074766;28;20483;-56
2022/09/08 11:44:52;;;;;;;1.87;1.67;;;24.00;99.90;;;;;;5074573;28;20428;-57
2022/09/08 11:47:49;;;;;;;3.13;1.50;;;23.50;99.90;;;;;;5075168;28;20512;-57
2022/09/08 11:50:29;;;;;;;1.30;1.10;;;23.10;99.90;;;;;;5068176;28;20484;-57
2022/09/08 11:53:11;;;;;;;1.63;1.43;;;23.00;99.90;;;;;;5074959;28;20429;-57
2022/09/08 11:55:57;;;;;;;2.77;1.80;;;22.80;99.90;;;;;;5073673;28;20527;-57
2022/09/08 11:58:31;;;;;;;2.47;1.67;;;22.60;99.90;;;;;;5074492;28;20432;-57
2022/09/08 12:01:10;;;;;;;3.30;1.40;;;23.00;99.90;;;;;;5074797;28;20467;-56
2022/09/08 12:04:08;;;;;;;3.50;2.37;;;23.10;99.90;;;;;;5074220;28;20432;-57
2022/09/08 12:06:47;;;;;;;5.13;2.07;;;23.00;99.90;;;;;;5074393;28;20527;-57
2022/09/08 12:09:36;;;;;;;2.00;1.67;;;22.80;99.90;;;;;;5074370;28;20424;-57
2022/09/08 12:12:21;;;;;;;2.90;1.60;;;22.70;99.90;;;;;;5074182;28;20475;-57
2022/09/08 12:15:02;;;;;;;2.10;1.63;;;22.50;99.90;;;;;;5074471;28;20515;-57
2022/09/08 12:17:44;;;;;;;2.37;1.60;;;22.50;99.90;;;;;;5074048;28;20417;-57
2022/09/08 12:20:29;;;;;;;2.87;1.40;;;22.60;99.90;;;;;;5074173;28;20421;-57
2022/09/08 12:23:32;;;;;;;2.80;1.60;;;22.50;99.90;;;;;;5073752;28;20472;-57
2022/09/08 12:26:19;;;;;;;2.23;1.40;;;22.50;99.90;;;;;;5074378;28;20499;-57
2022/09/08 12:29:14;;;;;;;3.63;1.43;;;22.40;99.90;;;;;;5074348;28;20420;-57
2022/09/08 12:31:51;;;;;;;2.40;1.80;;;22.30;99.90;;;;;;5073756;28;20460;-57
2022/09/08 12:34:44;;;;;;;3.00;1.57;;;22.40;99.90;;;;;;5074070;28;20452;-57
2022/09/08 12:37:18;;;;;;;2.10;1.70;;;22.60;99.90;;;;;;5073934;28;20482;-57
2022/09/08 12:40:34;;;;;;;2.43;2.23;;;22.80;99.90;;;;;;5073673;28;20425;-56
2022/09/08 12:43:17;;;;;;;1.70;1.60;;;22.80;99.90;;;;;;5037606;28;20578;-57
2022/09/08 12:46:02;;;;;;;1.97;1.60;;;22.40;99.90;;;;;;5073482;28;20891;-56
2022/09/08 12:48:35;;;;;;;1.80;1.30;;;22.60;99.90;;;;;;5073204;28;21035;-56
2022/09/08 12:51:08;;;;;;;3.63;1.67;;;23.60;99.90;;;;;;5073407;28;20470;-56
2022/09/08 12:54:14;;;;;;;2.87;1.60;;;24.30;99.90;;;;;;5073568;28;20425;-57
2022/09/08 12:56:55;;;;;;;3.10;2.80;;;24.60;99.90;;;;;;5073223;28;20424;-57
2022/09/08 12:59:35;;;;;;;2.43;1.90;;;25.20;99.90;;;;;;5073269;28;20960;-57
2022/09/08 13:02:24;;;;;;;3.13;1.70;;;25.10;99.90;;;;;;5073163;28;20938;-57
2022/09/08 13:05:07;;;;;;;2.20;1.23;;;24.50;99.90;;;;;;5073506;28;20452;-57
2022/09/08 13:07:42;;;;;;;3.07;1.67;;;24.10;99.80;;;;;;5072931;28;20425;-56
2022/09/08 13:10:24;;;;;;;2.20;1.40;;;23.90;99.90;;;;;;5073142;28;20424;-56
2022/09/08 13:13:19;;;;;;;1.40;1.20;;;23.60;99.90;;;;;;5073045;28;20874;-57
2022/09/08 13:15:51;;;;;;;1.40;1.30;;;23.40;98.80;;;;;;5073027;28;20449;-56
2022/09/08 13:18:30;;;;;;;3.30;1.20;;;23.20;98.80;;;;;;5073038;28;20434;-57
2022/09/08 13:21:06;;;;;;;2.13;1.57;;;23.10;99.30;;;;;;5073343;28;20464;-57
2022/09/08 13:23:47;;;;;;;1.70;1.30;;;23.50;99.00;;;;;;5073352;28;20472;-57
2022/09/08 13:26:41;;;;;;;2.80;1.90;;;23.60;99.90;;;;;;5073278;28;20511;-57
2022/09/08 13:29:34;;;;;;;2.60;1.57;;;23.70;99.50;;;;;;5073043;28;20424;-56
2022/09/08 13:32:13;;;;;;;1.70;1.30;;;23.90;98.10;;;;;;5072879;28;20492;-57
2022/09/08 13:34:57;;;;;;;1.63;1.20;;;23.70;99.00;;;;;;5073352;28;20447;-57
2022/09/08 13:37:48;;;;;;;2.23;2.03;;;23.50;98.70;;;;;;5073266;28;20757;-57
2022/09/08 13:40:31;;;;;;;1.40;1.30;;;23.10;98.90;;;;;;5072876;28;20432;-57
2022/09/08 13:43:16;;;;;;;1.93;1.50;;;23.20;99.40;;;;;;5072906;28;20488;-56